Date,TemperatureHighF,TemperatureAvgF,TemperatureLowF,DewpointHighF,DewpointAvgF,DewpointLowF,HumidityHigh,HumidityAvg,HumidityLow,PressureMaxIn,PressureMinIn,WindSpeedMaxMPH,WindSpeedAvgMPH,GustSpeedMaxMPH,PrecipitationSumIn
2013-3-1,31,26,13,20,13,4,70,58,51,30.35,30.18,11,1,19,0.00
2013-3-2,33,18,6,12,4,-3,71,56,31,30.39,30.26,8,0,12,0.00
2013-3-3,37,20,5,15,3,-4,70,49,24,30.28,30.12,4,0,9,0.00
2013-3-4,32,27,23,21,15,6,68,59,47,30.16,30.01,14,1,21,0.00
2013-3-5,32,28,26,24,20,17,75,72,65,30.23,29.95,5,0,9,0.00
2013-3-6,33,24,9,20,14,0,71,65,57,30.44,30.22,8,0,17,0.00
2013-3-7,40,18,1,24,8,-8,71,62,50,30.52,30.41,3,0,8,0.02
2013-3-8,42,28,11,27,17,3,71,64,52,30.51,30.27,6,0,12,0.00
2013-3-9,39,37,33,32,29,24,80,73,62,30.27,29.80,14,1,24,0.78
2013-3-10,40,37,34,36,30,26,85,78,71,29.82,29.61,9,1,17,0.44
2013-3-11,34,32,30,26,25,22,75,73,71,29.89,29.66,5,0,9,0.01
2013-3-12,35,28,24,26,18,14,75,64,53,30.16,29.89,11,1,20,0.00
2013-3-13,36,27,21,14,11,5,66,52,32,30.42,30.16,10,1,19,0.00
2013-3-14,40,28,20,30,18,12,75,68,54,30.42,30.13,5,0,9,0.03
2013-3-15,37,30,23,30,22,15,75,71,67,30.12,29.80,5,0,10,0.04
2013-3-16,37,31,26,26,21,15,75,67,56,30.23,29.83,9,1,14,0.00
2013-3-17,33,28,21,20,14,6,65,57,47,30.31,30.02,14,2,20,0.00
2013-3-18,33,26,18,25,17,5,75,67,53,30.03,29.67,11,1,19,0.02
2013-3-19,32,21,13,11,5,0,61,49,34,30.21,29.90,12,2,21,0.08
2013-3-20,26,16,9,5,-1,-7,58,46,39,30.27,30.14,12,0,17,0.01
2013-3-21,32,18,5,11,3,-4,68,53,34,30.20,30.08,6,0,11,0.00
2013-3-22,37,24,9,18,10,0,70,58,36,30.17,30.07,5,0,8,0.00
2013-3-23,44,32,18,24,18,9,73,57,34,30.20,30.08,5,0,8,0.00
2013-3-24,34,31,28,24,22,18,75,68,55,30.11,29.87,10,1,20,0.04
2013-3-25,37,32,28,22,19,14,72,58,51,30.20,29.91,12,1,25,0.02
2013-3-26,45,34,23,24,19,14,69,55,43,30.35,30.20,10,0,16,3.72
2013-3-27,48,35,27,26,21,15,74,57,32,30.40,30.33,8,0,11,0.00
2013-3-28,52,36,21,29,21,13,72,57,29,30.43,30.31,4,0,7,0.00
2013-3-29,58,41,26,34,26,17,75,57,25,30.39,30.24,2,0,4,0.00
2013-3-30,54,44,34,41,34,24,77,66,58,30.26,29.90,14,1,20,0.00
2013-3-31,48,39,31,36,29,19,79,67,51,30.04,29.84,12,1,18,0.00